createdAt,value
2022-08-01T00:01:28.869Z,0.105560005
2022-08-01T00:02:32.794Z,0.097440004
2022-08-01T00:03:28.245Z,0.056840003
2022-08-01T00:04:29.299Z,0.064960003
2022-08-01T00:06:22.376Z,0.073080003
2022-08-01T00:07:18.922Z,0.097440004
2022-08-01T00:08:22.051Z,0.040600002
2022-08-01T00:09:23.809Z,0.064960003
2022-08-01T00:09:24.466Z,0.064960003
2022-08-01T00:10:18.240Z,0.089320004
2022-08-01T00:11:13.585Z,0.081200004
2022-08-01T00:12:13.931Z,0.073080003
2022-08-01T00:13:12.061Z,0.097440004
2022-08-01T00:14:10.623Z,0.170520008
2022-08-01T00:15:04.907Z,0.040600002
2022-08-01T00:16:16.743Z,0.056840003
2022-08-01T00:17:17.386Z,0.048720002
2022-08-01T00:18:16.291Z,0.097440004
2022-08-01T00:19:11.542Z,0.178640008
2022-08-01T00:21:15.202Z,0.056840003
2022-08-01T00:22:10.608Z,0.089320004
2022-08-01T00:23:13.048Z,0.129920006
2022-08-01T00:24:06.046Z,0.121800005
2022-08-01T00:24:14.334Z,0.121800005
2022-08-01T00:25:04.053Z,0.113680005
2022-08-01T00:26:59.243Z,0.081200004
2022-08-01T00:28:04.119Z,0.113680005
2022-08-01T00:28:57.308Z,0.032480001
2022-08-01T00:30:10.686Z,0.064960003
2022-08-01T00:30:10.687Z,0.064960003
2022-08-01T00:30:11.394Z,0.064960003
2022-08-01T00:33:10.093Z,0.056840003
2022-08-01T00:34:14.008Z,0.097440004
2022-08-01T00:35:15.752Z,0.081200004
2022-08-01T00:37:19.709Z,0.064960003
2022-08-01T00:38:22.640Z,0.081200004
2022-08-01T00:39:23.679Z,0.121800005
2022-08-01T00:41:25.558Z,0.064960003
2022-08-01T00:42:22.156Z,0.121800005
2022-08-01T00:43:31.510Z,0.048720002
2022-08-01T00:44:31.172Z,0.081200004
2022-08-01T00:46:37.444Z,0.081200004
2022-08-01T00:47:34.218Z,0.113680005
2022-08-01T00:48:44.147Z,0.040600002
2022-08-01T00:49:48.217Z,0.097440004
2022-08-01T00:51:53.161Z,0.032480001
2022-08-01T00:52:51.774Z,0.089320004
2022-08-01T00:53:54.081Z,0.097440004
2022-08-01T00:54:50.549Z,0.064960003
2022-08-01T00:55:52.615Z,0.113680005
2022-08-01T00:56:53.249Z,0.081200004
2022-08-01T00:58:01.802Z,0.105560005
2022-08-01T00:58:02.622Z,0.105560005
2022-08-01T00:58:04.686Z,0.105560005
2022-08-01T00:58:52.745Z,0.073080003
2022-08-01T00:59:49.667Z,0.154280007
2022-08-01T01:00:54.883Z,0.113680005
2022-08-01T01:01:50.072Z,0.138040006
2022-08-01T01:02:56.459Z,0.073080003
2022-08-01T01:03:59.104Z,0.064960003
2022-08-01T01:04:57.264Z,0.138040006
2022-08-01T01:05:56.088Z,0.121800005
2022-08-01T01:06:59.581Z,0.048720002
2022-08-01T01:07:55.607Z,0.097440004
2022-08-01T01:11:22.520Z,0.113680005
2022-08-01T01:12:23.886Z,0.073080003
2022-08-01T01:13:22.421Z,0.113680005
2022-08-01T01:14:22.364Z,0.089320004
2022-08-01T01:16:20.286Z,0.194880009
2022-08-01T01:17:17.498Z,0.097440004
2022-08-01T01:17:41.992Z,0.097440004
2022-08-01T01:17:50.286Z,0.097440004
2022-08-01T01:18:19.735Z,0.129920006
2022-08-01T01:19:17.729Z,0.097440004
2022-08-01T01:20:16.553Z,0.121800005
2022-08-01T01:22:19.139Z,0.073080003
2022-08-01T01:23:17.129Z,0.113680005
2022-08-01T01:24:18.137Z,0.048720002
2022-08-01T01:25:17.395Z,0.056840003
2022-08-01T01:26:19.649Z,0.048720002
2022-08-01T01:27:12.077Z,0.064960003
2022-08-01T01:28:15.020Z,0.146160007
2022-08-01T01:29:09.718Z,0.105560005
2022-08-01T01:30:13.896Z,0.089320004
2022-08-01T01:32:06.826Z,0.105560005
2022-08-01T01:33:07.134Z,0.105560005
2022-08-01T01:34:03.760Z,0.097440004
2022-08-01T01:35:07.618Z,0.105560005
2022-08-01T01:35:59.708Z,0.113680005
2022-08-01T01:37:01.193Z,0.113680005
2022-08-01T01:37:55.147Z,0.138040006
2022-08-01T01:38:55.582Z,0.073080003
2022-08-01T01:39:54.103Z,0.138040006
2022-08-01T01:41:50.775Z,0.064960003
2022-08-01T01:42:52.935Z,0.129920006
2022-08-01T01:43:47.609Z,0.032480001
2022-08-01T01:44:49.493Z,0.073080003
2022-08-01T01:45:44.534Z,0.056840003
2022-08-01T01:46:44.383Z,0.121800005
2022-08-01T01:48:21.656Z,0.081200004
2022-08-01T01:51:29.188Z,0.056840003
2022-08-01T01:52:25.499Z,0.146160007
2022-08-01T01:53:27.345Z,0.105560005
2022-08-01T01:54:22.690Z,0.073080003
2022-08-01T01:55:28.512Z,0.032480001
2022-08-01T01:56:24.757Z,0.089320004
2022-08-01T01:57:23.694Z,0.081200004
2022-08-01T01:58:19.955Z,0.097440004
2022-08-01T01:59:18.848Z,0.138040006
2022-08-01T01:59:25.620Z,0.138040006
2022-08-01T02:00:18.970Z,0.00812
2022-08-01T02:01:14.853Z,0.032480001
2022-08-01T02:02:11.963Z,0.138040006
2022-08-01T02:03:05.055Z,0.105560005
2022-08-01T02:04:03.440Z,0.081200004
2022-08-01T02:04:56.819Z,0.105560005
2022-08-01T02:06:51.464Z,0.121800005
2022-08-01T02:07:53.458Z,0.121800005
2022-08-01T02:07:59.753Z,0.121800005
2022-08-01T02:08:51.462Z,0.073080003
2022-08-01T02:09:46.001Z,0.064960003
2022-08-01T02:11:59.116Z,0.105560005
2022-08-01T02:12:07.248Z,0.105560005
2022-08-01T02:12:09.371Z,0.105560005
2022-08-01T02:12:45.220Z,0.097440004
2022-08-01T02:13:43.249Z,0.073080003
2022-08-01T02:14:39.413Z,0.105560005
2022-08-01T02:15:37.679Z,0.056840003
2022-08-01T02:16:31.185Z,0.138040006
2022-08-01T02:17:29.919Z,0.146160007
2022-08-01T02:18:27.941Z,0.048720002
2022-08-01T02:19:29.464Z,0.138040006
2022-08-01T02:20:20.897Z,0.186760008
2022-08-01T02:21:21.792Z,0.024360001
2022-08-01T02:22:15.662Z,0.064960003
2022-08-01T02:23:15.487Z,0.081200004
2022-08-01T02:24:16.323Z,0.129920006
2022-08-01T02:25:07.515Z,0.00812
2022-08-01T02:26:10.646Z,0.00812
2022-08-01T02:27:10.515Z,0.040600002
2022-08-01T02:28:09.807Z,0.032480001
2022-08-01T02:29:10.258Z,0.097440004
2022-08-01T02:30:11.597Z,0.073080003
2022-08-01T02:33:33.107Z,0.073080003
2022-08-01T02:34:33.628Z,0.097440004
2022-08-01T02:35:33.113Z,0.073080003
2022-08-01T02:36:34.271Z,0.138040006
2022-08-01T02:37:37.759Z,0.056840003
2022-08-01T02:37:45.231Z,0.056840003
2022-08-01T02:38:37.590Z,0.121800005
2022-08-01T02:39:38.990Z,0.024360001
2022-08-01T02:40:36.183Z,0.048720002
2022-08-01T02:41:33.837Z,0.154280007
2022-08-01T02:42:30.979Z,0.138040006
2022-08-01T02:43:29.608Z,0.024360001
2022-08-01T02:44:27.616Z,0.032480001
2022-08-01T02:45:25.827Z,0.186760008
2022-08-01T02:47:29.605Z,0.024360001
2022-08-01T02:48:27.151Z,0.170520008
2022-08-01T02:49:26.685Z,0.064960003
2022-08-01T02:50:26.551Z,0.081200004
2022-08-01T02:51:27.134Z,0.089320004
2022-08-01T02:52:24.189Z,0.138040006
2022-08-01T02:53:21.700Z,0.081200004
2022-08-01T02:54:22.731Z,0.081200004
2022-08-01T02:55:20.604Z,0.097440004
2022-08-01T02:57:18.021Z,0.024360001
2022-08-01T02:58:15.108Z,0.048720002
2022-08-01T02:59:13.722Z,0.048720002
2022-08-01T03:00:10.654Z,0.121800005
2022-08-01T03:03:11.693Z,0.211120009
2022-08-01T03:04:15.604Z,0.089320004
2022-08-01T03:05:16.747Z,0.081200004
2022-08-01T03:06:17.508Z,0.089320004
2022-08-01T03:07:16.102Z,0.129920006
2022-08-01T03:08:14.703Z,0.089320004
2022-08-01T03:09:11.612Z,0.081200004
2022-08-01T03:10:08.290Z,0.040600002
2022-08-01T03:11:09.504Z,0.105560005
2022-08-01T03:12:05.957Z,0.170520008
2022-08-01T03:13:10.117Z,0.089320004
2022-08-01T03:14:02.745Z,0.178640008
2022-08-01T03:15:05.096Z,0.121800005
2022-08-01T03:17:05.451Z,0.129920006
2022-08-01T03:18:08.097Z,0.138040006
2022-08-01T03:19:00.192Z,0.064960003
2022-08-01T03:20:00.628Z,0.040600002
2022-08-01T03:21:53.416Z,0.121800005
2022-08-01T03:22:52.985Z,0.024360001
2022-08-01T03:23:52.251Z,0.097440004
2022-08-01T03:23:55.281Z,0.097440004
2022-08-01T03:24:50.886Z,0.154280007
2022-08-01T03:25:45.410Z,0.154280007
2022-08-01T03:26:49.650Z,0.081200004
2022-08-01T03:27:54.207Z,0.073080003
2022-08-01T03:28:52.405Z,0.194880009
2022-08-01T03:29:55.922Z,0.024360001
2022-08-01T03:31:52.797Z,0.089320004
2022-08-01T03:32:45.297Z,0.048720002
2022-08-01T03:33:41.847Z,0.040600002
2022-08-01T03:34:48.879Z,0.048720002
2022-08-01T03:36:53.575Z,0.146160007
2022-08-01T03:38:14.723Z,0.154280007
2022-08-01T03:38:16.288Z,0.154280007
2022-08-01T03:38:17.219Z,0.154280007
2022-08-01T03:38:52.769Z,0.081200004
2022-08-01T03:39:57.217Z,0.081200004
2022-08-01T03:41:56.227Z,0.064960003
2022-08-01T03:41:57.055Z,0.064960003
2022-08-01T03:42:52.727Z,0.097440004
2022-08-01T03:43:51.112Z,0.129920006
2022-08-01T03:44:53.732Z,0.040600002
2022-08-01T03:46:50.945Z,0.105560005
2022-08-01T03:47:48.039Z,0.089320004
2022-08-01T03:48:50.468Z,0.073080003
2022-08-01T03:49:47.140Z,0.056840003
2022-08-01T03:51:42.449Z,0.048720002
2022-08-01T03:52:48.895Z,0.048720002
2022-08-01T03:53:44.440Z,0.073080003
2022-08-01T03:54:47.349Z,0.138040006
2022-08-01T03:55:41.505Z,0.146160007
2022-08-01T03:56:44.900Z,0.064960003
2022-08-01T03:57:38.248Z,0.105560005
2022-08-01T03:58:38.265Z,0.056840003
2022-08-01T03:59:37.928Z,0.024360001
2022-08-01T04:00:39.205Z,0.121800005
2022-08-01T04:01:41.001Z,0.146160007
2022-08-01T04:02:37.910Z,0.105560005
2022-08-01T04:03:41.861Z,0.073080003
2022-08-01T04:04:39.025Z,0.097440004
2022-08-01T04:05:39.292Z,0.089320004
2022-08-01T04:06:39.590Z,0.097440004
2022-08-01T04:07:33.953Z,0.056840003
2022-08-01T04:08:33.092Z,0.186760008
2022-08-01T04:09:31.141Z,0.105560005
2022-08-01T04:10:32.410Z,0.170520008
2022-08-01T04:11:27.922Z,0.146160007
2022-08-01T04:12:30.490Z,0.146160007
2022-08-01T04:13:26.712Z,0.073080003
2022-08-01T04:13:37.103Z,0.073080003
2022-08-01T04:13:38.311Z,0.073080003
2022-08-01T04:14:30.134Z,0.097440004
2022-08-01T04:15:25.516Z,0.073080003
2022-08-01T04:17:22.018Z,0.146160007
2022-08-01T04:18:26.210Z,0.113680005
2022-08-01T04:19:25.259Z,0.121800005
2022-08-01T04:20:25.209Z,0.089320004
2022-08-01T04:22:29.666Z,0.162400007
2022-08-01T04:23:30.373Z,0.097440004
2022-08-01T04:24:26.834Z,0.089320004
2022-08-01T04:25:26.043Z,0.105560005
2022-08-01T04:26:31.152Z,0.097440004
2022-08-01T04:27:50.052Z,0.121800005
2022-08-01T04:27:51.015Z,0.121800005
2022-08-01T04:27:51.047Z,0.121800005
2022-08-01T04:29:22.932Z,0.105560005
2022-08-01T04:30:24.645Z,0.097440004
2022-08-01T04:32:23.051Z,0.162400007
2022-08-01T04:33:19.409Z,0.113680005
2022-08-01T04:34:24.692Z,0.081200004
2022-08-01T04:36:51.117Z,0.170520008
2022-08-01T04:37:51.220Z,0.129920006
2022-08-01T04:38:49.116Z,0.21924001
2022-08-01T04:39:50.379Z,0.154280007
2022-08-01T04:40:43.378Z,0.203000009
2022-08-01T04:41:42.949Z,0.121800005
2022-08-01T04:42:42.033Z,0.194880009
2022-08-01T04:43:44.426Z,0.146160007
2022-08-01T04:44:38.824Z,0.121800005
2022-08-01T04:45:37.620Z,0.178640008
2022-08-01T04:47:33.633Z,0.097440004
2022-08-01T04:48:30.625Z,0.194880009
2022-08-01T04:49:29.472Z,0.162400007
2022-08-01T04:50:32.573Z,0.146160007
2022-08-01T04:51:26.349Z,0.162400007
2022-08-01T04:52:30.428Z,0.162400007
2022-08-01T04:53:22.690Z,0.178640008
2022-08-01T04:54:22.158Z,0.154280007
2022-08-01T04:55:21.071Z,0.129920006
2022-08-01T04:56:19.220Z,0.129920006
2022-08-01T04:57:19.082Z,0.089320004
2022-08-01T04:58:17.942Z,0.129920006
2022-08-01T04:59:19.821Z,0.21924001
2022-08-01T05:00:14.494Z,0.194880009
2022-08-01T05:02:11.004Z,0.235480011
2022-08-01T05:03:12.017Z,0.243600011
2022-08-01T05:04:06.222Z,0.170520008
2022-08-01T05:05:09.341Z,0.154280007
2022-08-01T05:07:06.150Z,0.162400007
2022-08-01T05:07:58.771Z,0.138040006
2022-08-01T05:08:57.730Z,0.186760008
2022-08-01T05:09:53.546Z,0.113680005
2022-08-01T05:10:53.332Z,0.21924001
2022-08-01T05:11:52.445Z,0.170520008
2022-08-01T05:12:50.225Z,0.154280007
2022-08-01T05:13:54.760Z,0.129920006
2022-08-01T05:14:48.562Z,0.154280007
2022-08-01T05:16:46.621Z,0.146160007
2022-08-01T05:19:10.883Z,0.121800005
2022-08-01T05:20:08.879Z,0.129920006
2022-08-01T05:22:03.664Z,0.138040006
2022-08-01T05:23:01.788Z,0.146160007
2022-08-01T05:23:58.938Z,0.121800005
2022-08-01T05:25:00.540Z,0.154280007
2022-08-01T05:26:02.041Z,0.097440004
2022-08-01T05:27:00.900Z,0.105560005
2022-08-01T05:27:56.103Z,0.22736001
2022-08-01T05:28:58.646Z,0.064960003
2022-08-01T05:29:57.570Z,0.097440004
2022-08-01T05:30:58.734Z,0.154280007
2022-08-01T05:32:00.541Z,0.081200004
2022-08-01T05:32:59.279Z,0.064960003
2022-08-01T05:34:02.276Z,0.105560005
2022-08-01T05:35:01.487Z,0.097440004
2022-08-01T05:37:00.632Z,0.105560005
2022-08-01T05:37:58.651Z,0.154280007
2022-08-01T05:38:54.961Z,0.073080003
2022-08-01T05:39:54.183Z,0.146160007
2022-08-01T05:41:52.059Z,0.162400007
2022-08-01T05:42:45.324Z,0.21924001
2022-08-01T05:43:45.428Z,0.203000009
2022-08-01T05:44:49.148Z,0.22736001
2022-08-01T05:46:47.283Z,0.113680005
2022-08-01T05:47:42.964Z,0.267960012
2022-08-01T05:48:40.237Z,0.129920006
2022-08-01T05:49:36.551Z,0.113680005
2022-08-01T05:50:34.789Z,0.22736001
2022-08-01T05:53:02.335Z,0.138040006
2022-08-01T05:54:02.085Z,0.186760008
2022-08-01T05:55:05.141Z,0.22736001
2022-08-01T05:56:03.482Z,0.146160007
2022-08-01T05:57:06.239Z,0.178640008
2022-08-01T05:58:03.930Z,0.203000009
2022-08-01T05:59:03.322Z,0.203000009
2022-08-01T06:00:01.316Z,0.284200013
2022-08-01T06:01:01.366Z,0.194880009
2022-08-01T06:01:56.827Z,0.332920015
2022-08-01T06:02:54.520Z,0.389760017
2022-08-01T06:03:59.162Z,0.316680014
2022-08-01T06:04:52.233Z,0.211120009
2022-08-01T06:06:48.868Z,0.170520008
2022-08-01T06:07:48.511Z,0.235480011
2022-08-01T06:08:44.038Z,0.308560014
2022-08-01T06:09:44.070Z,0.129920006
2022-08-01T06:10:38.725Z,0.21924001
2022-08-01T06:11:42.599Z,0.154280007
2022-08-01T06:12:38.832Z,0.203000009
2022-08-01T06:13:48.274Z,0.089320004
2022-08-01T06:13:48.640Z,0.089320004
2022-08-01T06:13:48.878Z,0.089320004
2022-08-01T06:14:36.064Z,0.178640008
2022-08-01T06:15:34.664Z,0.154280007
2022-08-01T06:17:36.584Z,0.073080003
2022-08-01T06:18:35.924Z,0.154280007
2022-08-01T06:19:37.256Z,0.194880009
2022-08-01T06:20:36.602Z,0.243600011
2022-08-01T06:21:31.173Z,0.146160007
2022-08-01T06:22:33.783Z,0.235480011
2022-08-01T06:23:32.801Z,0.365400016
2022-08-01T06:23:33.007Z,0.365400016
2022-08-01T06:24:29.503Z,0.44660002
2022-08-01T06:25:22.014Z,0.341040015
2022-08-01T06:26:23.990Z,0.267960012
2022-08-01T06:27:21.714Z,0.479080021
2022-08-01T06:27:22.536Z,0.479080021
2022-08-01T06:28:16.756Z,0.308560014
2022-08-01T06:29:11.399Z,0.503440022
2022-08-01T06:30:09.433Z,0.479080021
2022-08-01T06:31:11.841Z,0.414120018
2022-08-01T06:32:04.588Z,0.503440022
2022-08-01T06:33:05.269Z,0.519680023
2022-08-01T06:33:59.807Z,0.373520017
2022-08-01T06:34:59.864Z,0.552160025
2022-08-01T06:36:57.771Z,0.397880018
2022-08-01T06:37:50.014Z,0.576520026
2022-08-01T06:38:50.331Z,0.592760026
2022-08-01T06:39:51.265Z,0.66584003
2022-08-01T06:42:24.724Z,0.576520026
2022-08-01T06:43:23.950Z,0.519680023
2022-08-01T06:44:23.059Z,0.730800033
2022-08-01T06:45:24.140Z,0.633360028
2022-08-01T06:47:28.663Z,0.535920024
2022-08-01T06:48:22.824Z,0.68208003
2022-08-01T06:49:23.202Z,0.535920024
2022-08-01T06:50:25.400Z,0.66584003
2022-08-01T06:51:19.776Z,0.747040033
2022-08-01T06:52:21.607Z,0.568400025
2022-08-01T06:53:19.674Z,0.714560032
2022-08-01T06:54:23.528Z,0.738920033
2022-08-01T06:55:22.418Z,0.909440041
2022-08-01T06:57:20.252Z,0.828240037
2022-08-01T06:58:20.235Z,0.941920042
2022-08-01T06:58:30.861Z,0.941920042
2022-08-01T06:58:30.872Z,0.941920042
2022-08-01T06:59:22.718Z,1.177400112
2022-08-01T07:00:19.889Z,1.461600065
2022-08-01T07:01:20.815Z,1.388520002
2022-08-01T07:02:18.094Z,1.542800069
2022-08-01T07:03:19.717Z,1.372280121
2022-08-01T07:04:16.219Z,1.469720125
2022-08-01T07:05:20.262Z,1.705200076
2022-08-01T07:07:16.920Z,1.697080135
2022-08-01T07:08:13.649Z,1.891960144
2022-08-01T07:09:15.871Z,1.697080135
2022-08-01T07:10:12.871Z,2.379160166
2022-08-01T07:12:12.553Z,1.258599997
2022-08-01T07:13:15.344Z,2.054360151
2022-08-01T07:14:12.590Z,2.346680164
2022-08-01T07:15:14.454Z,2.655240059
2022-08-01T07:17:12.645Z,1.859480143
2022-08-01T07:18:13.007Z,1.851360083
2022-08-01T07:19:11.356Z,2.92320013
2022-08-01T07:20:16.181Z,2.273600101
2022-08-01T07:21:38.261Z,2.736440182
2022-08-01T07:21:39.376Z,2.736440182
2022-08-01T07:21:39.877Z,2.736440182
2022-08-01T07:22:13.064Z,3.361680031
2022-08-01T07:22:23.541Z,3.361680031
2022-08-01T07:23:13.424Z,2.768920183
2022-08-01T07:24:13.904Z,2.744560242
2022-08-01T07:25:13.371Z,2.614640236
2022-08-01T07:26:10.811Z,1.818880081
2022-08-01T07:27:25.388Z,1.997520089
2022-08-01T07:27:25.617Z,1.997520089
2022-08-01T07:27:26.121Z,1.997520089
2022-08-01T07:29:45.217Z,1.973160028
2022-08-01T07:30:46.525Z,2.176160097
2022-08-01T07:31:43.796Z,2.395400047
2022-08-01T07:32:44.739Z,2.314200163
2022-08-01T07:33:48.472Z,2.111200094
2022-08-01T07:33:48.873Z,2.111200094
2022-08-01T07:34:40.968Z,2.038120031
2022-08-01T07:35:36.753Z,2.265480042
2022-08-01T07:36:37.001Z,1.818880081
2022-08-01T07:37:45.555Z,2.403520107
2022-08-01T07:37:47.899Z,2.403520107
2022-08-01T07:37:48.992Z,2.403520107
2022-08-01T07:38:34.658Z,1.956920147
2022-08-01T07:39:33.028Z,3.564680099
2022-08-01T07:40:31.394Z,3.873240232
2022-08-01T07:41:45.556Z,4.133080006
2022-08-01T07:41:52.990Z,4.133080006
2022-08-01T07:42:05.371Z,4.133080006
2022-08-01T07:42:28.971Z,3.995040178
2022-08-01T07:43:25.238Z,4.246760368
2022-08-01T07:44:29.255Z,3.783920288
2022-08-01T07:45:22.039Z,2.874480247
2022-08-01T07:47:19.218Z,4.165560246
2022-08-01T07:48:20.315Z,4.319840431
2022-08-01T07:49:16.792Z,3.962560177
2022-08-01T07:50:15.547Z,4.433520317
2022-08-01T07:51:16.360Z,2.565920115
2022-08-01T07:52:12.596Z,4.660880089
2022-08-01T07:53:16.237Z,4.157440186
2022-08-01T07:54:09.703Z,3.272360086
2022-08-01T07:55:10.652Z,4.01940012
2022-08-01T07:57:07.467Z,1.875720024
2022-08-01T07:58:03.601Z,2.980040073
2022-08-01T07:59:06.570Z,3.921960115
2022-08-01T08:00:00.278Z,2.395400047
2022-08-01T08:01:57.779Z,5.269880295
2022-08-01T08:02:58.518Z,4.0437603
2022-08-01T08:03:54.809Z,4.587800026
2022-08-01T08:04:58.234Z,4.254879951
2022-08-01T08:05:59.639Z,2.69584012
2022-08-01T08:05:59.809Z,2.69584012
2022-08-01T08:07:49.558Z,4.49036026
2022-08-01T08:08:53.251Z,4.384799957
2022-08-01T08:09:50.960Z,4.124959946
2022-08-01T08:10:51.271Z,3.199280262
2022-08-01T08:11:47.762Z,2.574040174
2022-08-01T08:12:45.804Z,3.897600174
2022-08-01T08:13:42.221Z,4.709600449
2022-08-01T08:14:46.245Z,4.425400257
2022-08-01T08:15:40.061Z,4.774559975
2022-08-01T08:17:38.196Z,4.03564024
2022-08-01T08:19:17.247Z,4.133080006
2022-08-01T08:20:12.549Z,4.49036026
2022-08-01T08:21:12.562Z,2.444120169
2022-08-01T08:22:52.522Z,3.442880154
2022-08-01T08:25:52.031Z,1.071840048
2022-08-01T08:27:48.742Z,1.477840066
2022-08-01T08:28:49.056Z,3.532200098
2022-08-01T08:29:44.806Z,4.449760437
2022-08-01T08:30:47.330Z,4.263000011
2022-08-01T08:31:51.962Z,5.351080418
2022-08-01T08:31:52.021Z,5.351080418
2022-08-01T08:32:41.318Z,4.888240337
2022-08-01T08:33:37.016Z,5.302360058
2022-08-01T08:34:37.629Z,4.896360397
2022-08-01T08:35:40.354Z,4.652760029
2022-08-01T08:35:40.495Z,4.652760029
2022-08-01T08:35:54.159Z,4.652760029
2022-08-01T08:36:31.804Z,3.759560108
2022-08-01T08:37:31.985Z,3.369800091
2022-08-01T08:37:37.880Z,3.369800091
2022-08-01T08:38:28.475Z,3.020640135
2022-08-01T08:39:27.418Z,1.843240023
2022-08-01T08:40:22.232Z,1.485960007
2022-08-01T08:42:16.772Z,0.698320031
2022-08-01T08:43:15.966Z,0.609000027
2022-08-01T08:44:17.271Z,0.503440022
2022-08-01T08:45:11.832Z,0.67396003
2022-08-01T08:47:04.006Z,1.323559999
2022-08-01T08:48:05.366Z,2.208640099
2022-08-01T08:48:57.876Z,3.483480215
2022-08-01T08:50:00.542Z,4.392920017
2022-08-01T08:50:53.182Z,3.231760025
2022-08-01T08:52:48.396Z,2.395400047
2022-08-01T08:53:47.539Z,2.785160065
2022-08-01T08:54:42.913Z,2.314200163
2022-08-01T08:55:55.380Z,2.768920183
2022-08-01T08:55:55.608Z,2.768920183
2022-08-01T08:55:56.473Z,2.768920183
2022-08-01T08:56:41.148Z,2.614640236
2022-08-01T08:57:36.393Z,1.851360083
2022-08-01T08:58:34.662Z,1.599640131
2022-08-01T08:59:33.486Z,1.079960108
2022-08-01T09:00:30.054Z,0.990640044
2022-08-01T09:01:27.552Z,0.67396003
2022-08-01T09:02:28.282Z,0.698320031
2022-08-01T09:03:22.443Z,0.803880036
2022-08-01T09:04:19.992Z,0.617120028
2022-08-01T09:05:21.736Z,0.990640044
2022-08-01T09:06:13.752Z,0.787640035
2022-08-01T09:07:15.394Z,1.843240023
2022-08-01T09:08:07.861Z,3.118080139
2022-08-01T09:09:07.631Z,3.548440218
2022-08-01T09:10:03.068Z,4.068120003
2022-08-01T09:11:57.087Z,-0.089320004
2022-08-01T09:11:57.230Z,-0.089320004
2022-08-01T09:11:58.229Z,-0.089320004
2022-08-01T09:12:27.929Z,4.417280197
2022-08-01T09:13:26.952Z,3.889480114
2022-08-01T09:14:23.435Z,3.248000145
2022-08-01T09:15:23.498Z,3.304840088
2022-08-01T09:16:19.780Z,3.045000076
2022-08-01T09:17:22.655Z,4.00316
2022-08-01T09:18:15.609Z,4.206160069
2022-08-01T09:19:38.804Z,4.319840431
2022-08-01T09:19:39.500Z,4.319840431
2022-08-01T09:19:40.603Z,4.319840431
2022-08-01T09:20:14.615Z,4.068120003
2022-08-01T09:22:10.744Z,3.637760162
2022-08-01T09:23:05.928Z,3.174920082
2022-08-01T09:24:05.727Z,2.379160166
2022-08-01T09:25:00.872Z,1.737680078
2022-08-01T09:26:00.296Z,1.656480074
2022-08-01T09:27:55.086Z,2.882600069
2022-08-01T09:28:50.213Z,3.337320089
2022-08-01T09:30:00.413Z,3.662120104
2022-08-01T09:30:01.954Z,3.662120104
2022-08-01T09:30:50.490Z,3.767680168
2022-08-01T09:31:47.609Z,3.548440218
2022-08-01T09:32:48.938Z,3.353560209
2022-08-01T09:33:42.137Z,3.264240265
2022-08-01T09:34:39.770Z,3.499720097
2022-08-01T09:35:43.140Z,3.718960285
2022-08-01T09:37:37.324Z,2.500960112
2022-08-01T09:38:36.170Z,1.77828002
2022-08-01T09:39:28.689Z,1.827000141
2022-08-01T09:41:02.633Z,2.752680063
2022-08-01T09:43:01.400Z,3.645880222
2022-08-01T09:43:56.281Z,3.80016017
2022-08-01T09:45:23.268Z,0.68208003
2022-08-01T09:46:00.973Z,3.897600174
2022-08-01T09:47:59.770Z,3.816400051
2022-08-01T09:48:56.056Z,3.80016017
2022-08-01T09:49:57.317Z,3.678360224
2022-08-01T09:50:53.510Z,3.930080175
2022-08-01T09:51:59.932Z,4.03564024
2022-08-01T09:52:00.860Z,4.03564024
2022-08-01T09:52:52.656Z,3.995040178
2022-08-01T09:53:52.178Z,4.157440186
2022-08-01T09:54:49.630Z,4.06000042
2022-08-01T09:55:45.848Z,3.986920118
2022-08-01T09:56:43.953Z,3.702720165
2022-08-01T09:57:44.789Z,4.238640308
2022-08-01T09:58:40.950Z,3.962560177
2022-08-01T09:59:57.267Z,3.857000113
2022-08-01T09:59:57.968Z,3.857000113
2022-08-01T09:59:58.731Z,3.857000113
2022-08-01T10:00:45.674Z,3.548440218
2022-08-01T10:00:46.005Z,3.548440218
2022-08-01T10:02:34.869Z,2.517199993
2022-08-01T10:03:35.326Z,2.395400047
2022-08-01T10:04:30.791Z,1.940680027
2022-08-01T10:05:36.841Z,1.997520089
2022-08-01T10:07:43.256Z,1.818880081
2022-08-01T10:07:44.105Z,1.818880081
2022-08-01T10:07:44.970Z,1.818880081
2022-08-01T10:08:27.240Z,2.2411201
2022-08-01T10:09:22.824Z,2.297960043
2022-08-01T10:10:23.469Z,2.094960213
2022-08-01T10:10:29.032Z,2.094960213
2022-08-01T10:12:17.614Z,1.583400011
2022-08-01T10:13:20.611Z,2.159920216
2022-08-01T10:14:14.261Z,3.020640135
2022-08-01T10:15:14.621Z,2.671480179
2022-08-01T10:17:10.657Z,2.947560072
2022-08-01T10:17:18.156Z,2.947560072
2022-08-01T10:18:06.755Z,2.906960011
2022-08-01T10:18:16.830Z,2.906960011
2022-08-01T10:18:26.495Z,2.906960011
2022-08-01T10:19:14.492Z,2.395400047
2022-08-01T10:19:15.562Z,2.395400047
2022-08-01T10:20:13.030Z,1.721440077
2022-08-01T10:20:29.024Z,1.721440077
2022-08-01T10:20:32.762Z,1.721440077
2022-08-01T10:21:10.979Z,1.380400062
2022-08-01T10:23:00.333Z,0.68208003
2022-08-01T10:24:03.118Z,0.592760026
2022-08-01T10:24:56.029Z,0.381640017
2022-08-01T10:25:56.020Z,0.730800033
2022-08-01T10:27:55.156Z,1.039360046
2022-08-01T10:28:49.585Z,0.974400043
2022-08-01T10:29:59.130Z,1.258599997
2022-08-01T10:30:04.545Z,1.258599997
2022-08-01T10:30:08.518Z,1.258599997
2022-08-01T10:30:47.154Z,1.542800069
2022-08-01T10:32:43.889Z,2.200520039
2022-08-01T10:32:50.708Z,2.200520039
2022-08-01T10:33:50.875Z,2.517199993
2022-08-01T10:33:51.898Z,2.517199993
2022-08-01T10:34:45.049Z,2.91508007
2022-08-01T10:35:47.651Z,3.053120136
2022-08-01T10:35:47.943Z,3.053120136
2022-08-01T10:37:35.181Z,3.694600105
2022-08-01T10:38:35.274Z,2.70396018
2022-08-01T10:39:31.010Z,3.467240095
2022-08-01T10:40:31.911Z,3.231760025
2022-08-01T10:43:04.974Z,4.181800365
2022-08-01T10:45:02.905Z,-0.056840003
2022-08-01T10:45:22.835Z,3.491600037
2022-08-01T10:46:20.068Z,2.825760126
2022-08-01T10:47:23.281Z,3.337320089
2022-08-01T10:47:27.110Z,3.337320089
2022-08-01T10:48:15.252Z,3.402280092
2022-08-01T10:48:20.665Z,3.402280092
2022-08-01T10:49:15.140Z,2.639000177
2022-08-01T10:50:10.413Z,2.45223999
2022-08-01T10:51:17.806Z,2.054360151
2022-08-01T10:51:17.816Z,2.054360151
2022-08-01T10:53:05.583Z,2.492840052
2022-08-01T10:53:10.820Z,2.492840052
2022-08-01T10:53:15.945Z,2.492840052
2022-08-01T10:54:01.144Z,2.379160166
2022-08-01T10:54:56.363Z,1.404760122
2022-08-01T10:55:55.133Z,1.364160061